Time;durP1;ratioP1;P1;durP2;ratioP2;P2;SDS_P1;SDS_P2;PMS_P1;PMS_P2;Temp;Humidity;BMP_temperature;BMP_pressure;BME280_temperature;BME280_humidity;BME280_pressure;Samples;Min_cycle;Max_cycle;Signal;HPM_P1;HPM_P2
2022/08/20 00:01:05;;;;;;;4.97;4.67;;;21.20;53.00;;;;;;10398363;28;20692;-84
2022/08/20 00:06:10;;;;;;;5.13;4.73;;;21.20;53.10;;;;;;10399165;28;20252;-84
2022/08/20 00:11:17;;;;;;;4.97;4.60;;;21.20;52.90;;;;;;10393162;28;20233;-84
2022/08/20 00:16:24;;;;;;;4.67;4.37;;;21.20;53.00;;;;;;10400877;28;20241;-84
2022/08/20 00:21:28;;;;;;;5.10;4.70;;;21.30;52.80;;;;;;10402075;28;20229;-82
2022/08/20 00:26:34;;;;;;;5.20;4.80;;;21.30;52.50;;;;;;10397920;28;20241;-83
2022/08/20 00:31:40;;;;;;;5.43;5.03;;;21.30;52.30;;;;;;10392845;28;20226;-83
2022/08/20 00:36:43;;;;;;;5.57;4.87;;;21.30;52.40;;;;;;10397631;28;20240;-84
2022/08/20 00:41:46;;;;;;;5.23;4.73;;;21.20;52.20;;;;;;10392886;28;20316;-83
2022/08/20 00:46:52;;;;;;;5.27;4.77;;;21.20;52.50;;;;;;10398994;28;20236;-84
2022/08/20 00:52:00;;;;;;;4.67;4.37;;;21.20;53.10;;;;;;10396012;28;20229;-84
2022/08/20 00:57:08;;;;;;;5.40;5.00;;;21.20;53.20;;;;;;10396544;28;20225;-84
2022/08/20 01:02:16;;;;;;;5.80;5.30;;;21.30;53.10;;;;;;10396352;28;20230;-83
2022/08/20 01:07:20;;;;;;;5.03;4.73;;;21.30;53.20;;;;;;10394124;28;20252;-83
2022/08/20 01:12:24;;;;;;;5.80;5.30;;;21.30;52.90;;;;;;10400576;28;20239;-83
2022/08/20 01:17:31;;;;;;;5.23;4.90;;;21.40;52.90;;;;;;10398655;28;20237;-83
2022/08/20 01:28:05;;;;;;;5.90;5.50;;;21.30;53.20;;;;;;10399768;28;20515;-83
2022/08/20 01:33:08;;;;;;;5.93;5.53;;;21.30;53.20;;;;;;10397464;28;20230;-83
2022/08/20 01:38:12;;;;;;;6.00;5.60;;;21.30;53.00;;;;;;10394456;28;20222;-82
2022/08/20 01:43:17;;;;;;;6.40;5.90;;;21.40;53.20;;;;;;10397182;28;20233;-83
2022/08/20 01:48:20;;;;;;;6.00;5.60;;;21.30;53.40;;;;;;10397541;28;20676;-84
2022/08/20 01:53:32;;;;;;;7.60;5.60;;;21.40;53.30;;;;;;10400851;28;20233;-82
2022/08/20 01:58:40;;;;;;;6.13;5.73;;;21.40;53.70;;;;;;10402918;28;20317;-83
2022/08/20 02:03:43;;;;;;;6.33;5.83;;;21.40;53.60;;;;;;10401838;28;20590;-82
2022/08/20 02:08:46;;;;;;;6.93;6.27;;;21.30;53.20;;;;;;10407387;28;20314;-82
2022/08/20 02:13:53;;;;;;;7.30;6.73;;;21.30;53.00;;;;;;10404037;28;20741;-82
2022/08/20 02:18:59;;;;;;;8.00;7.40;;;21.30;53.50;;;;;;10402735;28;20233;-83
2022/08/20 02:24:02;;;;;;;8.13;7.53;;;21.30;53.40;;;;;;10402592;28;20308;-83
2022/08/20 02:29:10;;;;;;;7.93;7.37;;;21.30;53.40;;;;;;10406655;28;20301;-82
2022/08/20 02:34:14;;;;;;;7.27;6.77;;;21.20;53.90;;;;;;10408119;28;20225;-82
2022/08/20 02:39:25;;;;;;;7.43;6.93;;;21.30;53.70;;;;;;10404145;28;20236;-82
2022/08/20 02:44:31;;;;;;;8.50;7.70;;;21.30;53.40;;;;;;10407990;28;20328;-83
2022/08/20 02:49:35;;;;;;;8.03;7.43;;;21.30;54.00;;;;;;10394309;28;20621;-83
2022/08/20 02:54:38;;;;;;;8.93;8.23;;;21.30;53.40;;;;;;10404246;28;20221;-82
2022/08/20 02:59:44;;;;;;;8.37;7.77;;;21.30;53.40;;;;;;10405831;28;20238;-82
2022/08/20 03:04:47;;;;;;;8.17;7.47;;;21.30;53.50;;;;;;10401767;28;20299;-83
2022/08/20 03:09:50;;;;;;;7.47;6.97;;;21.30;53.40;;;;;;10406421;28;20236;-83
2022/08/20 03:14:55;;;;;;;7.50;6.93;;;21.30;53.40;;;;;;10408518;28;20252;-83
2022/08/20 03:19:58;;;;;;;7.90;7.30;;;21.30;53.80;;;;;;10403885;28;20226;-82
2022/08/20 03:25:01;;;;;;;6.90;6.40;;;21.30;53.80;;;;;;10398549;28;20313;-83
2022/08/20 03:30:10;;;;;;;7.00;6.50;;;21.30;53.90;;;;;;10409917;28;20622;-85
2022/08/20 03:35:15;;;;;;;6.47;6.00;;;21.30;54.10;;;;;;10400355;28;20230;-84
2022/08/20 03:40:22;;;;;;;7.27;6.77;;;21.30;54.10;;;;;;10405416;28;20229;-83
2022/08/20 03:45:29;;;;;;;7.20;6.60;;;21.30;54.00;;;;;;10403425;28;20267;-83
2022/08/20 03:50:32;;;;;;;6.93;6.33;;;21.30;53.80;;;;;;10402927;28;20320;-83
2022/08/20 03:55:36;;;;;;;6.90;6.30;;;21.20;53.40;;;;;;10401656;28;20236;-82
2022/08/20 04:00:44;;;;;;;6.13;5.73;;;21.20;53.90;;;;;;10399193;28;20248;-83
2022/08/20 04:05:47;;;;;;;6.00;5.50;;;21.20;54.40;;;;;;10393493;28;20609;-83
2022/08/20 04:10:51;;;;;;;6.50;6.03;;;21.20;54.10;;;;;;10400686;28;20289;-82
2022/08/20 04:15:56;;;;;;;6.90;6.40;;;21.20;54.10;;;;;;10402587;28;20243;-83
2022/08/20 04:20:59;;;;;;;7.13;6.63;;;21.20;54.30;;;;;;10405237;28;20231;-83
2022/08/20 04:26:02;;;;;;;8.57;7.70;;;21.20;54.10;;;;;;10395922;28;20228;-83
2022/08/20 04:31:07;;;;;;;10.87;9.97;;;21.10;54.30;;;;;;10400440;28;20975;-83
2022/08/20 04:36:10;;;;;;;17.37;15.97;;;21.20;54.80;;;;;;10400681;28;20228;-83
2022/08/20 04:41:14;;;;;;;20.37;18.67;;;21.20;54.60;;;;;;10398290;28;20221;-83
2022/08/20 04:46:27;;;;;;;20.93;19.23;;;21.20;54.60;;;;;;10396159;28;20244;-82
2022/08/20 04:51:31;;;;;;;20.80;19.10;;;21.20;55.30;;;;;;10402842;28;20221;-82
2022/08/20 04:56:37;;;;;;;21.43;19.67;;;21.10;54.80;;;;;;10396759;28;20271;-82
2022/08/20 05:01:42;;;;;;;20.37;18.57;;;21.10;55.50;;;;;;10402313;28;20225;-83
2022/08/20 05:06:45;;;;;;;20.57;18.87;;;21.10;55.60;;;;;;10398663;28;20236;-83
2022/08/20 05:11:49;;;;;;;21.17;19.40;;;21.20;55.40;;;;;;10402434;28;20228;-83
2022/08/20 05:16:56;;;;;;;20.90;19.10;;;21.20;55.30;;;;;;10393104;28;20227;-82
2022/08/20 05:22:00;;;;;;;21.20;19.47;;;21.20;55.70;;;;;;10391866;28;20220;-83
2022/08/20 05:27:03;;;;;;;18.67;17.07;;;21.20;55.50;;;;;;10400838;28;20221;-83
2022/08/20 05:32:08;;;;;;;19.53;17.93;;;21.20;55.50;;;;;;10413886;28;20224;-83
2022/08/20 05:37:12;;;;;;;19.93;18.03;;;21.20;55.80;;;;;;10409661;28;20225;-84
2022/08/20 05:42:17;;;;;;;19.13;17.53;;;21.20;55.60;;;;;;10401848;28;20225;-84
2022/08/20 05:47:27;;;;;;;18.70;17.20;;;21.20;55.80;;;;;;10406112;28;20230;-84
2022/08/20 05:52:36;;;;;;;18.60;17.00;;;21.30;55.80;;;;;;10393467;28;20260;-83
2022/08/20 05:57:40;;;;;;;19.37;17.77;;;21.30;55.30;;;;;;10403813;28;20341;-84
2022/08/20 06:08:06;;;;;;;16.83;15.43;;;21.40;55.70;;;;;;10401323;28;20226;-85
2022/08/20 06:13:10;;;;;;;17.30;15.90;;;21.40;55.30;;;;;;10409282;28;20240;-84
2022/08/20 06:18:17;;;;;;;18.07;16.63;;;21.50;55.50;;;;;;10402389;28;20233;-85
2022/08/20 06:23:30;;;;;;;17.17;15.87;;;21.50;55.70;;;;;;10404125;28;20315;-83
2022/08/20 06:28:54;;;;;;;18.40;16.60;;;21.50;55.40;;;;;;10405395;28;20218;-85
2022/08/20 06:33:58;;;;;;;16.90;15.43;;;21.50;55.10;;;;;;10409764;28;20687;-85
2022/08/20 06:39:02;;;;;;;16.73;15.27;;;21.50;55.40;;;;;;10406056;28;20288;-86
2022/08/20 06:44:06;;;;;;;17.30;15.90;;;21.50;54.90;;;;;;10405882;28;20236;-82
2022/08/20 06:49:12;;;;;;;15.40;14.13;;;21.50;55.00;;;;;;10406901;28;20309;-84
2022/08/20 06:54:16;;;;;;;16.80;15.40;;;21.50;55.10;;;;;;10406162;28;20230;-84
2022/08/20 06:59:19;;;;;;;15.73;14.33;;;21.50;54.70;;;;;;10398943;28;20470;-85
2022/08/20 07:04:25;;;;;;;15.23;13.77;;;21.40;54.40;;;;;;10400498;28;20251;-85
2022/08/20 07:09:28;;;;;;;14.57;13.33;;;21.40;55.00;;;;;;10403360;28;20576;-85
2022/08/20 07:14:31;;;;;;;13.93;12.73;;;21.30;54.90;;;;;;10398876;28;20229;-86
2022/08/20 07:19:38;;;;;;;14.17;12.97;;;21.30;54.90;;;;;;10400711;28;20295;-82
2022/08/20 07:24:41;;;;;;;14.73;13.40;;;21.30;55.10;;;;;;10395067;28;20275;-85
2022/08/20 07:35:19;;;;;;;12.67;11.57;;;21.20;55.10;;;;;;10390925;28;20288;-84
2022/08/20 07:40:27;;;;;;;13.70;12.43;;;21.30;54.90;;;;;;10402866;28;20309;-82
2022/08/20 07:45:31;;;;;;;13.27;12.07;;;21.30;54.90;;;;;;10404336;28;20225;-84
2022/08/20 07:50:36;;;;;;;12.57;11.47;;;21.20;54.90;;;;;;10399022;28;20627;-84
2022/08/20 07:55:40;;;;;;;13.50;12.17;;;21.20;55.10;;;;;;10401667;28;20252;-84
2022/08/20 08:01:00;;;;;;;12.73;11.53;;;21.10;55.00;;;;;;10397561;28;20233;-85
2022/08/20 08:06:05;;;;;;;12.90;11.60;;;21.10;55.10;;;;;;10398671;28;20222;-85
2022/08/20 08:11:09;;;;;;;12.03;10.93;;;21.00;55.50;;;;;;10394448;28;20239;-81
2022/08/20 08:16:14;;;;;;;11.23;10.23;;;21.00;55.50;;;;;;10352297;28;20229;-81
2022/08/20 08:21:21;;;;;;;10.83;9.93;;;21.00;56.00;;;;;;10350974;28;20461;-81
2022/08/20 08:26:25;;;;;;;10.07;9.27;;;21.00;56.50;;;;;;10348557;28;20265;-81
2022/08/20 08:31:28;;;;;;;10.50;9.60;;;21.00;56.80;;;;;;10348229;28;20226;-81
2022/08/20 08:36:33;;;;;;;10.57;9.67;;;21.00;56.00;;;;;;10349745;28;21234;-84
2022/08/20 08:41:40;;;;;;;9.43;8.63;;;21.10;56.30;;;;;;10340405;28;20598;-82
2022/08/20 08:46:47;;;;;;;9.93;9.10;;;21.10;56.20;;;;;;10341069;28;20230;-80
2022/08/20 08:52:03;;;;;;;9.50;8.70;;;21.10;56.30;;;;;;10348655;28;20226;-82
2022/08/20 08:57:09;;;;;;;8.87;8.20;;;21.00;56.30;;;;;;10354409;28;20301;-81
2022/08/20 09:02:20;;;;;;;8.93;8.20;;;21.10;56.50;;;;;;10365435;28;20234;-81
2022/08/20 09:07:28;;;;;;;9.90;8.90;;;21.10;56.70;;;;;;10368904;28;20841;-84
2022/08/20 09:12:32;;;;;;;9.50;8.70;;;21.10;56.70;;;;;;10373328;28;20229;-82
2022/08/20 09:17:35;;;;;;;9.93;9.13;;;21.10;56.20;;;;;;10409904;28;20232;-82
2022/08/20 09:22:41;;;;;;;9.27;8.37;;;21.10;56.50;;;;;;10409348;28;20328;-83
2022/08/20 09:27:44;;;;;;;9.40;8.60;;;21.10;56.90;;;;;;10412852;28;20329;-83
2022/08/20 09:32:50;;;;;;;9.50;8.63;;;21.20;56.50;;;;;;10414779;28;20312;-82
2022/08/20 09:37:56;;;;;;;9.13;8.33;;;21.20;56.40;;;;;;10411267;28;20583;-80
2022/08/20 09:42:59;;;;;;;8.47;7.87;;;21.20;56.90;;;;;;10418950;28;20221;-82
2022/08/20 09:54:28;;;;;;;8.90;8.10;;;21.30;56.70;;;;;;10416088;28;20221;-83
2022/08/20 09:59:33;;;;;;;8.87;8.17;;;21.20;56.60;;;;;;10424608;28;20229;-80
2022/08/20 10:04:36;;;;;;;9.20;8.40;;;21.30;56.80;;;;;;10424390;28;20322;-81
2022/08/20 10:09:41;;;;;;;8.77;8.07;;;21.30;56.70;;;;;;10424215;28;20763;-82
2022/08/20 10:14:44;;;;;;;8.50;7.80;;;21.30;57.40;;;;;;10425164;28;20344;-81
2022/08/20 10:19:48;;;;;;;8.83;8.10;;;21.30;56.90;;;;;;10420968;28;20603;-80
2022/08/20 10:24:52;;;;;;;9.27;8.40;;;21.30;57.10;;;;;;10418369;28;20221;-80
2022/08/20 10:29:56;;;;;;;8.60;7.90;;;21.40;57.90;;;;;;10420561;28;20232;-82
2022/08/20 10:34:59;;;;;;;9.73;8.93;;;21.50;57.70;;;;;;10422415;28;20723;-82
2022/08/20 10:40:05;;;;;;;9.07;8.37;;;21.50;57.70;;;;;;10425198;28;20225;-81
2022/08/20 10:45:09;;;;;;;9.07;8.30;;;21.60;58.70;;;;;;10405070;28;20332;-80
2022/08/20 10:50:16;;;;;;;9.33;8.53;;;21.60;58.10;;;;;;10399107;28;20236;-83
2022/08/20 10:55:20;;;;;;;9.90;9.00;;;21.70;58.60;;;;;;10410686;28;20309;-81
2022/08/20 11:00:23;;;;;;;9.40;8.67;;;21.80;58.30;;;;;;10415908;28;20241;-81
2022/08/20 11:05:27;;;;;;;9.70;8.93;;;21.90;58.10;;;;;;10410796;28;20234;-79
2022/08/20 11:10:34;;;;;;;8.90;8.20;;;22.00;58.10;;;;;;10410767;28;20225;-81
2022/08/20 11:15:41;;;;;;;9.10;8.40;;;22.10;58.50;;;;;;10419602;28;20309;-81
2022/08/20 11:20:44;;;;;;;8.83;8.03;;;22.20;58.40;;;;;;10405957;28;20226;-80
2022/08/20 11:25:49;;;;;;;8.77;8.10;;;22.20;57.70;;;;;;10415975;28;20225;-79
2022/08/20 11:30:52;;;;;;;9.20;8.50;;;22.10;57.50;;;;;;10409186;28;20712;-81
2022/08/20 11:35:56;;;;;;;9.80;8.90;;;22.30;57.40;;;;;;10404308;28;20226;-79
2022/08/20 11:41:00;;;;;;;10.20;9.20;;;22.30;57.00;;;;;;10419966;28;20236;-80
2022/08/20 11:46:04;;;;;;;8.63;7.93;;;22.30;57.40;;;;;;10420595;28;20221;-79
2022/08/20 11:51:11;;;;;;;10.20;9.23;;;22.40;57.20;;;;;;10419236;28;20233;-80
2022/08/20 11:56:17;;;;;;;9.83;9.03;;;22.50;57.60;;;;;;10399892;28;20946;-79
2022/08/20 12:01:21;;;;;;;10.03;9.13;;;22.50;57.40;;;;;;10388425;28;20256;-75
2022/08/20 12:06:24;;;;;;;10.47;9.47;;;22.60;57.00;;;;;;10381608;28;20230;-79
2022/08/20 12:11:29;;;;;;;9.33;8.63;;;22.60;56.90;;;;;;10392482;28;20238;-81
2022/08/20 12:16:32;;;;;;;10.17;9.37;;;22.70;57.80;;;;;;10389648;28;20229;-79
2022/08/20 12:21:35;;;;;;;10.13;9.23;;;22.70;58.00;;;;;;10392020;28;20225;-80
2022/08/20 12:26:40;;;;;;;10.53;9.67;;;22.80;57.50;;;;;;10400188;28;20562;-81
2022/08/20 12:31:43;;;;;;;10.73;9.73;;;22.80;57.30;;;;;;10399320;28;20313;-81
2022/08/20 12:36:46;;;;;;;10.03;9.23;;;22.90;57.50;;;;;;10403200;28;20309;-80
2022/08/20 12:41:51;;;;;;;10.97;10.10;;;23.00;58.80;;;;;;10407325;28;20226;-78
2022/08/20 12:47:06;;;;;;;10.37;9.67;;;23.10;57.60;;;;;;10409004;28;20309;-78
2022/08/20 12:52:09;;;;;;;11.03;10.13;;;23.20;58.00;;;;;;10401290;28;20692;-78
2022/08/20 12:57:24;;;;;;;10.80;9.97;;;23.30;57.30;;;;;;10383312;28;20251;-77
2022/08/20 13:02:27;;;;;;;12.50;11.50;;;23.40;57.30;;;;;;10403302;28;20225;-78
2022/08/20 13:07:31;;;;;;;12.43;11.40;;;23.50;56.50;;;;;;10409825;28;20229;-81
2022/08/20 13:12:36;;;;;;;11.30;10.50;;;23.60;56.10;;;;;;10403994;28;20309;-80
2022/08/20 13:17:39;;;;;;;11.83;11.03;;;23.60;56.40;;;;;;10402066;28;20229;-80
2022/08/20 13:22:43;;;;;;;14.03;12.83;;;23.60;56.30;;;;;;10393957;28;20240;-79
2022/08/20 13:27:48;;;;;;;13.90;12.80;;;23.60;56.30;;;;;;10395452;28;20255;-79
2022/08/20 13:32:51;;;;;;;14.30;13.27;;;23.60;56.20;;;;;;10389297;28;20230;-79
2022/08/20 13:37:54;;;;;;;14.27;13.03;;;23.60;56.10;;;;;;10390765;28;20256;-79
2022/08/20 13:42:59;;;;;;;14.07;12.93;;;23.60;56.10;;;;;;10387058;28;20222;-79
2022/08/20 13:48:09;;;;;;;14.07;13.03;;;23.60;56.80;;;;;;10393587;28;20312;-79
2022/08/20 13:53:17;;;;;;;14.30;13.27;;;23.60;56.80;;;;;;10396782;28;20257;-80
2022/08/20 13:58:22;;;;;;;12.93;11.93;;;23.60;56.80;;;;;;10409946;28;20236;-79
2022/08/20 14:03:25;;;;;;;13.00;12.07;;;23.60;56.90;;;;;;10403303;28;20261;-80
2022/08/20 14:08:29;;;;;;;14.43;13.33;;;23.60;57.20;;;;;;10403824;28;20221;-80
2022/08/20 14:13:33;;;;;;;14.53;13.43;;;23.70;57.20;;;;;;10406714;28;20226;-79
2022/08/20 14:25:02;;;;;;;14.30;13.20;;;23.80;56.50;;;;;;10404649;28;20687;-79
2022/08/20 14:30:10;;;;;;;10.00;9.10;;;23.80;56.20;;;;;;10404091;28;21647;-78
2022/08/20 14:35:13;;;;;;;9.10;8.40;;;23.70;54.40;;;;;;10405845;28;20236;-78
2022/08/20 14:40:18;;;;;;;5.73;5.33;;;23.60;54.40;;;;;;10401656;28;20233;-79
2022/08/20 14:45:23;;;;;;;4.23;3.93;;;23.50;53.20;;;;;;10403515;28;20734;-80
2022/08/20 14:50:28;;;;;;;3.63;3.43;;;23.30;52.70;;;;;;10401224;28;20240;-78
2022/08/20 14:55:34;;;;;;;3.83;3.63;;;23.20;53.30;;;;;;10405348;28;20229;-80
2022/08/20 15:00:39;;;;;;;4.13;3.90;;;23.20;53.40;;;;;;10403296;28;20315;-79
2022/08/20 15:05:43;;;;;;;7.63;6.93;;;23.10;53.30;;;;;;10405142;28;20596;-80
2022/08/20 15:10:46;;;;;;;4.10;3.80;;;23.10;53.40;;;;;;10401431;28;20255;-80
2022/08/20 15:15:55;;;;;;;3.73;3.53;;;23.10;53.40;;;;;;10398786;28;20228;-79
2022/08/20 15:20:58;;;;;;;8.53;7.83;;;23.00;53.30;;;;;;10399798;28;20229;-78
2022/08/20 15:26:01;;;;;;;8.10;7.30;;;23.00;53.00;;;;;;10403382;28;20228;-79
2022/08/20 15:31:09;;;;;;;5.43;4.93;;;22.90;52.90;;;;;;10404048;28;20595;-78
2022/08/20 15:36:12;;;;;;;3.40;3.20;;;22.90;52.50;;;;;;10403241;28;20779;-78
2022/08/20 15:41:15;;;;;;;2.97;2.80;;;22.80;52.50;;;;;;10402331;28;20238;-80
2022/08/20 15:46:20;;;;;;;4.27;3.10;;;22.70;52.60;;;;;;10404872;28;20230;-78
2022/08/20 15:51:29;;;;;;;3.80;3.60;;;22.60;53.00;;;;;;10405848;28;20240;-78
2022/08/20 15:56:42;;;;;;;3.30;3.10;;;22.40;53.30;;;;;;10395825;28;21018;-80
2022/08/20 16:01:58;;;;;;;2.80;2.60;;;22.30;53.00;;;;;;10400917;28;20324;-79
2022/08/20 16:07:10;;;;;;;2.60;2.40;;;22.20;53.40;;;;;;10404324;28;21309;-80
2022/08/20 16:12:19;;;;;;;2.37;2.27;;;22.10;53.50;;;;;;10401598;28;20240;-79
2022/08/20 16:17:32;;;;;;;2.23;2.13;;;22.10;53.60;;;;;;10407110;28;20226;-80
2022/08/20 16:22:40;;;;;;;2.53;2.33;;;22.00;53.70;;;;;;10402866;28;20231;-79
2022/08/20 16:27:53;;;;;;;2.50;2.40;;;22.00;53.70;;;;;;10399229;28;20308;-80
2022/08/20 16:33:07;;;;;;;2.40;2.20;;;22.00;53.90;;;;;;10386454;28;20233;-80
2022/08/20 16:38:18;;;;;;;2.83;2.63;;;22.00;54.20;;;;;;10382300;28;20217;-80
2022/08/20 16:43:31;;;;;;;2.80;2.60;;;22.00;54.50;;;;;;10399231;28;20222;-80
2022/08/20 16:48:40;;;;;;;3.10;2.80;;;22.10;54.50;;;;;;10391616;28;20235;-81
2022/08/20 16:53:43;;;;;;;2.47;2.27;;;22.10;54.50;;;;;;10383649;28;20229;-81
2022/08/20 16:58:46;;;;;;;2.97;2.77;;;22.10;54.40;;;;;;10394860;28;20226;-80
2022/08/20 17:03:51;;;;;;;3.70;3.40;;;22.20;54.40;;;;;;10397463;28;20236;-81
2022/08/20 17:08:55;;;;;;;5.30;2.90;;;22.20;54.50;;;;;;10399326;28;20221;-81
2022/08/20 17:14:09;;;;;;;3.30;3.10;;;22.20;54.40;;;;;;10402869;28;20244;-81
2022/08/20 17:19:27;;;;;;;3.47;3.00;;;22.10;54.50;;;;;;10400996;28;20806;-81
2022/08/20 17:24:31;;;;;;;3.40;3.10;;;22.10;54.50;;;;;;10394838;28;20240;-81
2022/08/20 17:29:47;;;;;;;2.63;2.43;;;22.10;54.90;;;;;;10410676;28;20237;-79
2022/08/20 17:34:54;;;;;;;3.70;3.27;;;22.10;54.70;;;;;;10405949;28;20707;-80
2022/08/20 17:40:09;;;;;;;3.43;3.13;;;22.10;54.80;;;;;;10409426;28;20232;-81
2022/08/20 17:45:18;;;;;;;3.00;2.80;;;22.10;54.60;;;;;;10405074;28;20224;-81
2022/08/20 17:50:30;;;;;;;3.87;3.00;;;22.10;54.50;;;;;;10407743;28;20229;-81
2022/08/20 17:55:36;;;;;;;3.13;2.93;;;22.00;54.50;;;;;;10412416;28;20218;-81
2022/08/20 18:00:40;;;;;;;3.10;2.90;;;22.00;54.40;;;;;;10410522;28;20240;-81
2022/08/20 18:05:47;;;;;;;2.90;2.70;;;22.00;54.40;;;;;;10414379;28;20229;-81
2022/08/20 18:11:03;;;;;;;3.23;3.00;;;22.00;54.80;;;;;;10400808;28;20230;-81
2022/08/20 18:16:14;;;;;;;3.57;3.27;;;22.00;54.70;;;;;;10409191;28;20627;-81
2022/08/20 18:21:49;;;;;;;3.57;3.03;;;22.00;54.60;;;;;;10412832;28;20288;-80
2022/08/20 18:26:57;;;;;;;3.30;2.90;;;22.00;54.80;;;;;;10412304;28;20320;-81
2022/08/20 18:32:03;;;;;;;2.80;2.60;;;22.00;54.80;;;;;;10415779;28;20237;-81
2022/08/20 18:37:24;;;;;;;3.40;3.20;;;22.00;54.60;;;;;;10410048;28;20261;-81
2022/08/20 18:42:31;;;;;;;3.63;2.60;;;22.00;54.80;;;;;;10412989;28;20316;-81
2022/08/20 18:47:44;;;;;;;3.20;2.90;;;22.00;54.70;;;;;;10417407;28;20256;-81
2022/08/20 18:52:51;;;;;;;2.83;2.63;;;22.00;54.50;;;;;;10413121;28;20297;-81
2022/08/20 18:58:00;;;;;;;3.07;2.87;;;22.00;54.40;;;;;;10410639;28;20297;-81
2022/08/20 19:03:16;;;;;;;2.93;2.73;;;22.00;54.70;;;;;;10411654;28;20683;-81
2022/08/20 19:08:37;;;;;;;2.97;2.77;;;21.90;54.60;;;;;;10407450;28;20311;-81
2022/08/20 19:13:50;;;;;;;3.17;2.57;;;21.90;54.70;;;;;;10398775;28;20756;-81
2022/08/20 19:18:55;;;;;;;3.20;2.97;;;21.80;54.60;;;;;;10410325;28;20240;-81
2022/08/20 19:24:04;;;;;;;3.17;2.80;;;21.80;54.70;;;;;;10406262;28;20221;-80
2022/08/20 19:29:10;;;;;;;3.63;3.23;;;21.80;54.90;;;;;;10410541;28;20249;-82
2022/08/20 19:34:21;;;;;;;2.80;2.57;;;21.80;54.70;;;;;;10401684;28;20225;-80
2022/08/20 19:39:27;;;;;;;3.00;2.80;;;21.80;55.00;;;;;;10404864;28;20400;-80
2022/08/20 19:44:41;;;;;;;3.63;2.43;;;21.70;55.00;;;;;;10408018;28;20226;-79
2022/08/20 19:49:57;;;;;;;2.97;2.77;;;21.80;55.00;;;;;;10404138;28;20768;-81
2022/08/20 19:55:02;;;;;;;3.37;2.50;;;21.70;54.70;;;;;;10408534;28;20227;-81
2022/08/20 20:00:11;;;;;;;3.53;3.07;;;21.70;54.90;;;;;;10399660;28;20606;-81
2022/08/20 20:05:15;;;;;;;3.33;2.83;;;21.70;54.50;;;;;;10401081;28;20272;-81
2022/08/20 20:10:30;;;;;;;3.10;2.80;;;21.70;54.30;;;;;;10401519;28;20237;-80
2022/08/20 20:15:35;;;;;;;3.40;3.10;;;21.70;54.40;;;;;;10406457;28;20217;-81
2022/08/20 20:20:48;;;;;;;3.40;3.10;;;21.70;54.20;;;;;;10399993;28;20285;-77
2022/08/20 20:26:04;;;;;;;5.03;3.37;;;21.60;54.20;;;;;;10404918;28;20297;-78
2022/08/20 20:31:09;;;;;;;4.83;3.47;;;21.50;54.10;;;;;;10403475;28;20317;-79
2022/08/20 20:36:15;;;;;;;3.73;3.43;;;21.50;54.20;;;;;;10398979;28;20241;-79
2022/08/20 20:41:25;;;;;;;4.03;3.50;;;21.40;54.30;;;;;;10404601;28;20230;-79
2022/08/20 20:46:29;;;;;;;5.27;3.33;;;21.40;55.50;;;;;;10405787;28;20228;-79
2022/08/20 20:51:38;;;;;;;5.50;3.70;;;21.30;54.80;;;;;;10409016;28;20791;-80
2022/08/20 20:56:44;;;;;;;4.30;4.00;;;21.30;54.90;;;;;;10407296;28;20222;-78
2022/08/20 21:01:47;;;;;;;3.83;3.53;;;21.40;55.00;;;;;;10418794;28;20276;-77
2022/08/20 21:06:55;;;;;;;3.50;3.27;;;21.40;54.60;;;;;;10418792;28;20308;-79
2022/08/20 21:11:59;;;;;;;4.03;3.40;;;21.40;54.70;;;;;;10414049;28;20244;-78
2022/08/20 21:17:06;;;;;;;4.10;3.70;;;21.30;54.60;;;;;;10415377;28;20572;-79
2022/08/20 21:22:09;;;;;;;5.63;3.90;;;21.30;54.60;;;;;;10414637;28;20284;-78
2022/08/20 21:27:14;;;;;;;3.77;3.47;;;21.30;54.50;;;;;;10413184;28;20236;-79
2022/08/20 21:32:18;;;;;;;3.20;3.00;;;21.30;54.50;;;;;;10416352;28;20229;-79
2022/08/20 21:37:21;;;;;;;3.67;3.37;;;21.40;54.50;;;;;;10409411;28;22090;-79
2022/08/20 21:42:26;;;;;;;3.83;3.53;;;21.40;54.40;;;;;;10410144;28;20239;-79
2022/08/20 21:47:31;;;;;;;3.63;3.43;;;21.40;54.50;;;;;;10410213;28;20244;-81
2022/08/20 21:52:36;;;;;;;3.13;2.83;;;21.40;54.30;;;;;;10411636;28;20324;-80
2022/08/20 21:57:47;;;;;;;4.27;3.80;;;21.40;54.30;;;;;;10404560;28;20230;-80
2022/08/20 22:02:51;;;;;;;4.33;3.90;;;21.40;54.30;;;;;;10412087;28;20252;-80
2022/08/20 22:07:54;;;;;;;3.97;3.57;;;21.40;54.10;;;;;;10403919;28;20229;-79
2022/08/20 22:12:59;;;;;;;3.80;3.50;;;21.40;54.30;;;;;;10399089;28;20667;-79
2022/08/20 22:18:03;;;;;;;4.03;3.50;;;21.40;54.20;;;;;;10406457;28;20221;-80
2022/08/20 22:23:07;;;;;;;3.73;3.43;;;21.40;54.10;;;;;;10413825;28;20318;-81
2022/08/20 22:28:12;;;;;;;4.27;3.97;;;21.40;54.10;;;;;;10413652;28;20230;-80
2022/08/20 22:33:21;;;;;;;4.63;4.00;;;21.40;54.20;;;;;;10413531;28;20324;-80
2022/08/20 22:38:24;;;;;;;4.17;3.70;;;21.40;54.30;;;;;;10409889;28;20233;-77
2022/08/20 22:43:29;;;;;;;3.97;3.43;;;21.40;54.30;;;;;;10414387;28;20350;-80
2022/08/20 22:48:32;;;;;;;4.37;3.97;;;21.30;54.40;;;;;;10413632;28;20317;-80
2022/08/20 22:53:36;;;;;;;3.93;3.63;;;21.40;54.50;;;;;;10415423;28;20218;-81
2022/08/20 22:58:41;;;;;;;7.13;4.17;;;21.30;54.20;;;;;;10411604;28;20233;-79
2022/08/20 23:03:48;;;;;;;4.00;3.70;;;21.30;54.70;;;;;;10417144;28;20316;-81
2022/08/20 23:08:51;;;;;;;4.17;3.70;;;21.20;54.80;;;;;;10418522;28;20249;-80
2022/08/20 23:13:56;;;;;;;4.07;3.67;;;21.20;55.50;;;;;;10416893;28;20256;-81
2022/08/20 23:19:00;;;;;;;4.60;3.60;;;21.10;56.40;;;;;;10417201;28;20285;-80
2022/08/20 23:24:04;;;;;;;4.70;4.00;;;21.10;56.50;;;;;;10414899;28;20287;-81
2022/08/20 23:29:11;;;;;;;3.80;3.50;;;21.10;56.70;;;;;;10412617;28;20217;-80
2022/08/20 23:34:25;;;;;;;3.40;3.10;;;21.10;57.30;;;;;;10411507;28;20221;-82
2022/08/20 23:39:30;;;;;;;3.70;3.40;;;21.10;56.80;;;;;;10404828;28;20232;-80
2022/08/20 23:44:34;;;;;;;3.97;3.10;;;21.10;56.90;;;;;;10405804;28;20754;-81
2022/08/20 23:49:37;;;;;;;3.17;2.97;;;21.20;57.10;;;;;;10402484;28;20325;-80
2022/08/20 23:54:41;;;;;;;3.23;3.03;;;21.20;56.80;;;;;;10410168;28;20236;-80
2022/08/20 23:59:45;;;;;;;2.77;2.57;;;21.20;56.70;;;;;;10400996;28;20226;-78
